This is the latest recevied weather packets stored in our database for station/object EA7AZH-5. If no packets are shown the sender has not sent any weather packets the latest 10 day(s).
| Time | Temp. | Humidity | Pressure | Rain* | Wind** | Luminosity | Snow |
|---|---|---|---|---|---|---|---|
| 1777482810 | 23.33° C | 53% | 1009.9 hPa | - | - | - | - |
| 1777481010 | 24.44° C | 49% | 1010 hPa | - | - | - | - |
| 1777476210 | 25.56° C | 46% | 1009.9 hPa | - | - | - | - |
| 1777472615 | 24.44° C | 51% | 1010.1 hPa | - | - | - | - |
| 1777471410 | 23.89° C | 53% | 1010.3 hPa | - | - | - | - |
| 1777467215 | 23.33° C | 54% | 1010.5 hPa | - | - | - | - |
| 1777460009 | 22.22° C | 57% | 1010.4 hPa | - | - | - | - |
| 1777455814 | 21.67° C | 57% | 1010.7 hPa | - | - | - | - |
| 1777454609 | 21.67° C | 58% | 1010.8 hPa | - | - | - | - |
| 1777450414 | 21.11° C | 57% | 1010.8 hPa | - | - | - | - |
| 1777448014 | 21.67° C | 56% | 1010.5 hPa | - | - | - | - |
| 1777447409 | 22.22° C | 53% | 1010.5 hPa | - | - | - | - |
| 1777443814 | 20° C | 58% | 1008.9 hPa | - | - | - | - |
| 1777437808 | 19.44° C | 57% | 1009.1 hPa | - | - | - | - |
| 1777430608 | 21.11° C | 53% | 1008.9 hPa | - | - | - | - |
| 1777425208 | 21.67° C | 51% | 1008.9 hPa | - | - | - | - |
| 1777419808 | 21.67° C | 52% | 1009.6 hPa | - | - | - | - |
| 1777409007 | 22.78° C | 51% | 1010.2 hPa | - | - | - | - |
| 1777400607 | 23.33° C | 51% | 1008.7 hPa | - | - | - | - |
| 1777395206 | 23.33° C | 49% | 1008.9 hPa | - | - | - | - |
* Rain since midnight (hover to see other rain measurements)
** Current wind speed in m/s (hover to see current wind gust speed)